This is the latest recevied weather packets stored in our database for station/object KEOD. If no packets are shown the sender has not sent any weather packets the latest 1 day(s).
| Time | Temp. | Humidity | Pressure | Rain* | Wind** | Luminosity | Snow |
|---|---|---|---|---|---|---|---|
| 1778005411 | 20.56° C | 77% | 1010.5 hPa | - | 7.6 m/s, 210° | - | - |
| 1778004808 | 20.56° C | 77% | 1010.5 hPa | - | 7.6 m/s, 210° | - | - |
| 1778004211 | 20.56° C | 77% | 1010.5 hPa | - | 7.6 m/s, 210° | - | - |
| 1778003609 | 16.67° C | 88% | 1010.8 hPa | - | 3.58 m/s, 190° | - | - |
| 1778003005 | 16.67° C | 88% | 1010.8 hPa | - | 3.58 m/s, 190° | - | - |
| 1778002407 | 16.67° C | 88% | 1010.8 hPa | - | 3.58 m/s, 190° | - | - |
| 1778001807 | 16.67° C | 88% | 1010.8 hPa | - | 3.58 m/s, 190° | - | - |
| 1778001213 | 16.67° C | 88% | 1010.8 hPa | - | 3.58 m/s, 190° | - | - |
| 1778000610 | 16.67° C | 88% | 1010.8 hPa | - | 3.58 m/s, 190° | - | - |
| 1778000010 | 16.67° C | 88% | 1010.5 hPa | - | 3.58 m/s, 160° | - | - |
| 1777999412 | 16.67° C | 88% | 1010.5 hPa | - | 3.58 m/s, 160° | - | - |
| 1777998808 | 16.67° C | 88% | 1010.5 hPa | - | 3.58 m/s, 160° | - | - |
| 1777998211 | 17.78° C | 82% | 1011.9 hPa | - | 4.47 m/s, 200° | - | - |
| 1777997608 | 17.78° C | 82% | 1011.9 hPa | - | 4.47 m/s, 200° | - | - |
| 1777997016 | 17.78° C | 82% | 1011.9 hPa | - | 4.47 m/s, 200° | - | - |
| 1777996412 | 17.78° C | 72% | 1011.5 hPa | - | 5.81 m/s, 200° | - | - |
| 1777995929 | 17.78° C | 72% | 1011.5 hPa | - | 5.81 m/s, 200° | - | - |
| 1777995208 | 17.78° C | 72% | 1011.5 hPa | - | 5.81 m/s, 200° | - | - |
| 1777994610 | 17.78° C | 67% | 1011.5 hPa | - | 4.92 m/s, 200° | - | - |
| 1777994009 | 17.78° C | 67% | 1011.5 hPa | - | 4.92 m/s, 200° | - | - |
| 1777993407 | 17.78° C | 67% | 1011.5 hPa | - | 4.92 m/s, 200° | - | - |
| 1777992808 | 18.89° C | 68% | 1011.5 hPa | - | 4.47 m/s, 200° | - | - |
| 1777992207 | 18.89° C | 68% | 1011.5 hPa | - | 4.47 m/s, 200° | - | - |
| 1777991606 | 18.89° C | 68% | 1011.5 hPa | - | 4.47 m/s, 200° | - | - |
| 1777991008 | 18.89° C | 68% | 1011.5 hPa | - | 4.47 m/s, 200° | - | - |
* Rain since midnight (hover to see other rain measurements)
** Current wind speed in m/s (hover to see current wind gust speed)